createdAt,value
2023-03-06T00:00:33.609Z,4.20
2023-03-06T00:01:33.580Z,4.20
2023-03-06T00:02:33.571Z,4.22
2023-03-06T00:03:33.676Z,4.22
2023-03-06T00:04:33.560Z,4.24
2023-03-06T00:05:33.585Z,4.22
2023-03-06T00:06:33.524Z,4.20
2023-03-06T00:07:33.518Z,4.20
2023-03-06T00:08:33.499Z,4.12
2023-03-06T00:09:33.505Z,4.09
2023-03-06T00:10:33.475Z,3.97
2023-03-06T00:11:33.493Z,3.84
2023-03-06T00:12:33.506Z,3.76
2023-03-06T00:13:33.442Z,3.78
2023-03-06T00:14:33.453Z,3.73
2023-03-06T00:15:33.462Z,3.70
2023-03-06T00:16:33.474Z,3.62
2023-03-06T00:17:33.424Z,3.65
2023-03-06T00:18:33.384Z,3.62
2023-03-06T00:19:33.387Z,3.58
2023-03-06T00:20:33.363Z,3.54
2023-03-06T00:21:33.376Z,3.50
2023-03-06T00:22:33.362Z,3.47
2023-03-06T00:23:33.333Z,3.45
2023-03-06T00:24:33.340Z,3.47
2023-03-06T00:25:33.313Z,3.47
2023-03-06T00:26:33.303Z,3.43
2023-03-06T00:27:33.283Z,3.40
2023-03-06T00:28:33.615Z,3.39
2023-03-06T00:29:33.286Z,3.36
2023-03-06T00:30:33.263Z,3.42
2023-03-06T00:31:33.309Z,3.43
2023-03-06T00:32:33.537Z,3.43
2023-03-06T00:33:33.248Z,3.43
2023-03-06T00:34:33.238Z,3.48
2023-03-06T00:35:33.256Z,3.48
2023-03-06T00:36:33.172Z,3.50
2023-03-06T00:37:33.168Z,3.47
2023-03-06T00:38:33.164Z,3.43
2023-03-06T00:39:33.171Z,3.43
2023-03-06T00:40:33.150Z,3.45
2023-03-06T00:41:33.161Z,3.50
2023-03-06T00:42:33.111Z,3.51
2023-03-06T00:43:33.091Z,3.52
2023-03-06T00:44:33.117Z,3.54
2023-03-06T00:45:33.117Z,3.54
2023-03-06T00:46:33.074Z,3.55
2023-03-06T00:47:35.830Z,3.54
2023-03-06T00:48:33.056Z,3.54
2023-03-06T00:49:33.042Z,3.51
2023-03-06T00:50:33.013Z,3.52
2023-03-06T00:51:33.021Z,3.54
2023-03-06T00:52:33.001Z,3.51
2023-03-06T00:53:33.008Z,3.54
2023-03-06T00:54:32.991Z,3.52
2023-03-06T00:55:33.281Z,3.52
2023-03-06T00:56:33.276Z,3.52
2023-03-06T00:57:39.963Z,3.52
2023-03-06T00:58:39.941Z,3.51
2023-03-06T00:59:41.210Z,3.51
2023-03-06T01:00:39.987Z,3.51
2023-03-06T01:01:39.938Z,3.50
2023-03-06T01:02:33.009Z,3.47
2023-03-06T01:03:32.873Z,3.47
2023-03-06T01:04:32.852Z,3.45
2023-03-06T01:05:32.850Z,3.48
2023-03-06T01:06:32.847Z,3.48
2023-03-06T01:07:32.834Z,3.47
2023-03-06T01:08:32.813Z,3.47
2023-03-06T01:09:32.812Z,3.47
2023-03-06T01:10:32.788Z,3.50
2023-03-06T01:11:32.780Z,3.48
2023-03-06T01:12:32.760Z,3.48
2023-03-06T01:13:32.745Z,3.48
2023-03-06T01:14:32.753Z,3.51
2023-03-06T01:15:32.744Z,3.51
2023-03-06T01:16:32.801Z,3.48
2023-03-06T01:17:33.018Z,3.48
2023-03-06T01:18:32.690Z,3.47
2023-03-06T01:19:32.688Z,3.47
2023-03-06T01:20:33.018Z,3.47
2023-03-06T01:21:32.650Z,3.48
2023-03-06T01:22:32.640Z,3.45
2023-03-06T01:23:32.658Z,3.47
2023-03-06T01:24:32.643Z,3.47
2023-03-06T01:25:32.609Z,3.47
2023-03-06T01:26:32.779Z,3.47
2023-03-06T01:27:32.603Z,3.47
2023-03-06T01:28:32.869Z,3.48
2023-03-06T01:29:32.574Z,3.48
2023-03-06T01:30:32.552Z,3.48
2023-03-06T01:31:32.627Z,3.50
2023-03-06T01:32:32.591Z,3.50
2023-03-06T01:33:32.529Z,3.51
2023-03-06T01:34:32.509Z,3.48
2023-03-06T01:35:32.536Z,3.48
2023-03-06T01:36:32.480Z,3.48
2023-03-06T01:37:32.472Z,3.50
2023-03-06T01:38:32.465Z,3.50
2023-03-06T01:39:32.721Z,3.50
2023-03-06T01:40:32.539Z,3.50
2023-03-06T01:41:32.761Z,3.50
2023-03-06T01:42:32.414Z,3.51
2023-03-06T01:43:32.396Z,3.50
2023-03-06T01:44:32.426Z,3.48
2023-03-06T01:45:34.156Z,3.47
2023-03-06T01:46:32.380Z,3.47
2023-03-06T01:47:32.359Z,3.47
2023-03-06T01:48:32.352Z,3.47
2023-03-06T01:49:32.344Z,3.47
2023-03-06T01:50:32.660Z,3.50
2023-03-06T01:51:32.312Z,3.50
2023-03-06T01:52:32.298Z,3.50
2023-03-06T01:53:32.285Z,3.48
2023-03-06T01:54:32.292Z,3.48
2023-03-06T01:55:32.581Z,3.47
2023-03-06T01:56:32.247Z,3.47
2023-03-06T01:57:32.241Z,3.48
2023-03-06T01:58:32.516Z,3.45
2023-03-06T01:59:32.227Z,3.47
2023-03-06T02:00:33.243Z,3.48
2023-03-06T02:01:32.205Z,3.47
2023-03-06T02:02:32.229Z,3.47
2023-03-06T02:03:32.193Z,3.48
2023-03-06T02:04:32.221Z,3.50
2023-03-06T02:05:32.155Z,3.51
2023-03-06T02:06:32.149Z,3.54
2023-03-06T02:07:32.448Z,3.54
2023-03-06T02:08:32.111Z,3.55
2023-03-06T02:09:32.119Z,3.52
2023-03-06T02:10:37.056Z,3.52
2023-03-06T02:11:32.104Z,3.52
2023-03-06T02:12:32.090Z,3.51
2023-03-06T02:13:32.063Z,3.51
2023-03-06T02:14:32.067Z,3.55
2023-03-06T02:15:32.031Z,3.55
2023-03-06T02:16:32.055Z,3.54
2023-03-06T02:17:34.839Z,3.54
2023-03-06T02:18:32.018Z,3.52
2023-03-06T02:19:32.010Z,3.50
2023-03-06T02:20:31.980Z,3.50
2023-03-06T02:21:32.265Z,3.51
2023-03-06T02:22:31.978Z,3.48
2023-03-06T02:23:31.944Z,3.48
2023-03-06T02:24:31.961Z,3.52
2023-03-06T02:25:31.920Z,3.54
2023-03-06T02:26:31.922Z,3.57
2023-03-06T02:27:31.911Z,3.55
2023-03-06T02:28:31.891Z,3.54
2023-03-06T02:29:31.881Z,3.55
2023-03-06T02:30:31.963Z,3.55
2023-03-06T02:31:32.204Z,3.55
2023-03-06T02:32:31.884Z,3.54
2023-03-06T02:33:31.822Z,3.52
2023-03-06T02:34:38.842Z,3.52
2023-03-06T02:35:38.917Z,3.52
2023-03-06T02:36:39.189Z,3.55
2023-03-06T02:37:38.799Z,3.54
2023-03-06T02:38:31.768Z,3.52
2023-03-06T02:39:31.787Z,3.55
2023-03-06T02:40:31.739Z,3.54
2023-03-06T02:41:32.111Z,3.54
2023-03-06T02:42:33.628Z,3.55
2023-03-06T02:43:31.746Z,3.55
2023-03-06T02:44:31.731Z,3.58
2023-03-06T02:45:31.689Z,3.58
2023-03-06T02:46:31.737Z,3.57
2023-03-06T02:47:31.681Z,3.55
2023-03-06T02:48:31.659Z,3.58
2023-03-06T02:49:31.642Z,3.57
2023-03-06T02:50:31.648Z,3.57
2023-03-06T02:51:31.665Z,3.55
2023-03-06T02:52:31.637Z,3.55
2023-03-06T02:53:31.617Z,3.55
2023-03-06T02:54:31.594Z,3.55
2023-03-06T02:55:31.582Z,3.58
2023-03-06T02:56:31.590Z,3.57
2023-03-06T02:57:31.552Z,3.61
2023-03-06T02:58:31.551Z,3.60
2023-03-06T02:59:31.513Z,3.57
2023-03-06T03:00:31.540Z,3.57
2023-03-06T03:01:31.858Z,3.55
2023-03-06T03:02:31.511Z,3.61
2023-03-06T03:03:31.484Z,3.60
2023-03-06T03:04:31.591Z,3.60
2023-03-06T03:05:31.455Z,3.60
2023-03-06T03:06:31.450Z,3.60
2023-03-06T03:07:31.430Z,3.60
2023-03-06T03:08:31.412Z,3.57
2023-03-06T03:09:31.426Z,3.55
2023-03-06T03:10:31.733Z,3.54
2023-03-06T03:11:31.382Z,3.54
2023-03-06T03:12:31.412Z,3.54
2023-03-06T03:13:31.370Z,3.52
2023-03-06T03:14:31.376Z,3.52
2023-03-06T03:15:31.337Z,3.54
2023-03-06T03:16:31.331Z,3.54
2023-03-06T03:17:31.330Z,3.52
2023-03-06T03:18:31.321Z,3.54
2023-03-06T03:19:31.300Z,3.52
2023-03-06T03:20:31.275Z,3.51
2023-03-06T03:21:31.294Z,3.50
2023-03-06T03:22:31.286Z,3.50
2023-03-06T03:23:31.509Z,3.50
2023-03-06T03:24:31.267Z,3.48
2023-03-06T03:25:31.238Z,3.50
2023-03-06T03:26:31.210Z,3.50
2023-03-06T03:27:31.256Z,3.48
2023-03-06T03:28:31.192Z,3.50
2023-03-06T03:29:31.197Z,3.48
2023-03-06T03:30:31.177Z,3.47
2023-03-06T03:31:33.904Z,3.48
2023-03-06T03:32:31.195Z,3.48
2023-03-06T03:33:31.137Z,3.47
2023-03-06T03:34:31.126Z,3.43
2023-03-06T03:35:31.158Z,3.42
2023-03-06T03:36:31.094Z,3.42
2023-03-06T03:37:31.078Z,3.40
2023-03-06T03:38:31.102Z,3.43
2023-03-06T03:39:31.077Z,3.43
2023-03-06T03:40:31.049Z,3.47
2023-03-06T03:41:31.054Z,3.48
2023-03-06T03:42:31.018Z,3.51
2023-03-06T03:43:31.050Z,3.52
2023-03-06T03:44:31.013Z,3.52
2023-03-06T03:45:31.010Z,3.54
2023-03-06T03:46:31.005Z,3.55
2023-03-06T03:47:30.971Z,3.54
2023-03-06T03:48:30.973Z,3.54
2023-03-06T03:49:30.959Z,3.57
2023-03-06T03:50:30.934Z,3.55
2023-03-06T03:51:31.221Z,3.52
2023-03-06T03:52:30.919Z,3.55
2023-03-06T03:53:30.936Z,3.54
2023-03-06T03:54:30.899Z,3.54
2023-03-06T03:55:30.881Z,3.55
2023-03-06T03:56:30.878Z,3.58
2023-03-06T03:57:30.855Z,3.60
2023-03-06T03:58:30.846Z,3.57
2023-03-06T03:59:30.853Z,3.58
2023-03-06T04:00:30.838Z,3.54
2023-03-06T04:01:30.821Z,3.55
2023-03-06T04:02:30.786Z,3.60
2023-03-06T04:03:30.810Z,3.62
2023-03-06T04:04:30.789Z,3.62
2023-03-06T04:05:30.756Z,3.66
2023-03-06T04:06:30.764Z,3.65
2023-03-06T04:07:30.737Z,3.66
2023-03-06T04:08:37.757Z,3.61
2023-03-06T04:09:39.332Z,3.58
2023-03-06T04:10:37.709Z,3.65
2023-03-06T04:11:37.739Z,3.66
2023-03-06T04:12:37.701Z,3.66
2023-03-06T04:13:37.705Z,3.66
2023-03-06T04:14:37.683Z,3.68
2023-03-06T04:15:30.633Z,3.69
2023-03-06T04:16:30.645Z,3.66
2023-03-06T04:17:30.616Z,3.66
2023-03-06T04:18:30.636Z,3.69
2023-03-06T04:19:30.640Z,3.66
2023-03-06T04:20:30.603Z,3.66
2023-03-06T04:21:30.586Z,3.66
2023-03-06T04:22:30.574Z,3.66
2023-03-06T04:23:30.563Z,3.66
2023-03-06T04:24:30.844Z,3.65
2023-03-06T04:25:30.567Z,3.69
2023-03-06T04:26:30.512Z,3.70
2023-03-06T04:27:30.544Z,3.70
2023-03-06T04:28:30.533Z,3.68
2023-03-06T04:29:30.486Z,3.65
2023-03-06T04:30:30.477Z,3.62
2023-03-06T04:31:30.493Z,3.62
2023-03-06T04:32:30.551Z,3.60
2023-03-06T04:33:30.491Z,3.55
2023-03-06T04:34:30.448Z,3.58
2023-03-06T04:35:30.508Z,3.55
2023-03-06T04:36:30.418Z,3.57
2023-03-06T04:37:30.397Z,3.55
2023-03-06T04:38:30.393Z,3.55
2023-03-06T04:39:30.393Z,3.58
2023-03-06T04:40:30.358Z,3.58
2023-03-06T04:41:30.358Z,3.57
2023-03-06T04:42:30.339Z,3.55
2023-03-06T04:43:30.620Z,3.60
2023-03-06T04:44:30.329Z,3.60
2023-03-06T04:45:30.327Z,3.61
2023-03-06T04:46:30.296Z,3.60
2023-03-06T04:47:30.280Z,3.57
2023-03-06T04:48:30.261Z,3.58
2023-03-06T04:49:30.300Z,3.60
2023-03-06T04:50:30.239Z,3.57
2023-03-06T04:51:30.260Z,3.57
2023-03-06T04:52:30.262Z,3.58
2023-03-06T04:53:30.255Z,3.57
2023-03-06T04:54:30.191Z,3.58
2023-03-06T04:55:30.202Z,3.58
2023-03-06T04:56:30.179Z,3.57
2023-03-06T04:57:30.162Z,3.55
2023-03-06T04:58:30.170Z,3.58
2023-03-06T04:59:30.165Z,3.57
2023-03-06T05:00:30.125Z,3.50
2023-03-06T05:01:30.120Z,3.45
2023-03-06T05:02:30.217Z,3.50
2023-03-06T05:03:30.127Z,3.43
2023-03-06T05:04:30.111Z,3.47
2023-03-06T05:05:30.070Z,3.35
2023-03-06T05:06:30.070Z,3.33
2023-03-06T05:07:30.047Z,3.36
2023-03-06T05:08:30.348Z,3.36
2023-03-06T05:09:30.040Z,3.33
2023-03-06T05:10:30.015Z,3.33
2023-03-06T05:11:29.994Z,3.39
2023-03-06T05:12:29.995Z,3.35
2023-03-06T05:13:30.025Z,3.33
2023-03-06T05:14:29.966Z,3.35
2023-03-06T05:15:29.950Z,3.33
2023-03-06T05:16:30.246Z,3.32
2023-03-06T05:17:29.932Z,3.32
2023-03-06T05:18:29.915Z,3.33
2023-03-06T05:19:29.924Z,3.36
2023-03-06T05:20:30.209Z,3.39
2023-03-06T05:21:29.884Z,3.39
2023-03-06T05:22:29.878Z,3.36
2023-03-06T05:23:29.855Z,3.36
2023-03-06T05:24:29.866Z,3.39
2023-03-06T05:25:29.873Z,3.43
2023-03-06T05:26:29.830Z,3.42
2023-03-06T05:27:30.124Z,3.40
2023-03-06T05:28:29.804Z,3.39
2023-03-06T05:29:29.801Z,3.35
2023-03-06T05:30:29.772Z,3.35
2023-03-06T05:31:29.781Z,3.36
2023-03-06T05:32:29.839Z,3.36
2023-03-06T05:33:29.742Z,3.36
2023-03-06T05:34:29.780Z,3.32
2023-03-06T05:35:29.753Z,3.33
2023-03-06T05:36:29.711Z,3.31
2023-03-06T05:37:29.703Z,3.33
2023-03-06T05:38:29.677Z,3.39
2023-03-06T05:39:29.987Z,3.40
2023-03-06T05:40:29.661Z,3.42
2023-03-06T05:41:29.670Z,3.39
2023-03-06T05:42:29.661Z,3.36
2023-03-06T05:43:29.644Z,3.35
2023-03-06T05:44:29.619Z,3.35
2023-03-06T05:45:29.608Z,3.31
2023-03-06T05:46:37.594Z,3.29
2023-03-06T05:47:36.609Z,3.26
2023-03-06T05:48:36.608Z,3.28
2023-03-06T05:49:37.590Z,3.29
2023-03-06T05:50:29.541Z,3.33
2023-03-06T05:51:29.540Z,3.32
2023-03-06T05:52:29.523Z,3.31
2023-03-06T05:53:29.526Z,3.32
2023-03-06T05:54:29.533Z,3.35
2023-03-06T05:55:29.556Z,3.36
2023-03-06T05:56:29.497Z,3.35
2023-03-06T05:57:29.472Z,3.39
2023-03-06T05:58:29.457Z,3.36
2023-03-06T05:59:29.480Z,3.35
2023-03-06T06:00:29.452Z,3.35
2023-03-06T06:01:29.434Z,3.36
2023-03-06T06:02:29.468Z,3.40
2023-03-06T06:03:29.713Z,3.40
2023-03-06T06:04:29.425Z,3.40
2023-03-06T06:05:29.389Z,3.42
2023-03-06T06:06:29.367Z,3.45
2023-03-06T06:07:29.366Z,3.42
2023-03-06T06:08:29.341Z,3.45
2023-03-06T06:09:29.366Z,3.43
2023-03-06T06:10:29.321Z,3.43
2023-03-06T06:11:29.306Z,3.42
2023-03-06T06:12:29.298Z,3.45
2023-03-06T06:13:34.209Z,3.43
2023-03-06T06:14:29.276Z,3.39
2023-03-06T06:15:29.256Z,3.42
2023-03-06T06:16:29.245Z,3.45
2023-03-06T06:17:29.247Z,3.47
2023-03-06T06:18:29.224Z,3.47
2023-03-06T06:19:29.490Z,3.50
2023-03-06T06:20:29.199Z,3.50
2023-03-06T06:21:29.197Z,3.50
2023-03-06T06:22:29.186Z,3.51
2023-03-06T06:23:29.167Z,3.55
2023-03-06T06:24:29.196Z,3.60
2023-03-06T06:25:29.436Z,3.58
2023-03-06T06:26:29.131Z,3.60
2023-03-06T06:27:29.122Z,3.61
2023-03-06T06:28:29.108Z,3.60
2023-03-06T06:29:29.110Z,3.61
2023-03-06T06:30:29.098Z,3.58
2023-03-06T06:31:29.104Z,3.57
2023-03-06T06:32:29.104Z,3.58
2023-03-06T06:33:29.051Z,3.58
2023-03-06T06:34:29.207Z,3.60
2023-03-06T06:35:29.062Z,3.62
2023-03-06T06:36:29.015Z,3.65
2023-03-06T06:37:29.009Z,3.68
2023-03-06T06:38:28.999Z,3.65
2023-03-06T06:39:29.034Z,3.65
2023-03-06T06:40:28.960Z,3.62
2023-03-06T06:41:53.679Z,3.66
2023-03-06T06:42:36.915Z,3.66
2023-03-06T06:43:29.939Z,3.69
2023-03-06T06:44:28.941Z,3.65
2023-03-06T06:45:28.921Z,3.68
2023-03-06T06:47:19.245Z,3.70
2023-03-06T06:47:29.948Z,3.70
2023-03-06T06:48:28.898Z,3.70
2023-03-06T06:49:28.887Z,3.73
2023-03-06T06:50:28.910Z,3.65
2023-03-06T06:51:28.856Z,3.66
2023-03-06T06:52:28.865Z,3.69
2023-03-06T06:53:28.834Z,3.72
2023-03-06T06:54:28.819Z,3.72
2023-03-06T06:55:29.079Z,3.73
2023-03-06T06:56:28.802Z,3.73
2023-03-06T06:57:28.785Z,3.73
2023-03-06T06:58:28.778Z,3.68
2023-03-06T06:59:28.768Z,3.66
2023-03-06T07:00:28.756Z,3.66
2023-03-06T07:01:28.780Z,3.66
2023-03-06T07:02:28.720Z,3.68
2023-03-06T07:03:28.723Z,3.65
2023-03-06T07:04:28.711Z,3.61
2023-03-06T07:05:28.689Z,3.60
2023-03-06T07:06:28.693Z,3.60
2023-03-06T07:07:28.665Z,3.57
2023-03-06T07:08:28.649Z,3.58
2023-03-06T07:09:28.942Z,3.60
2023-03-06T07:10:28.634Z,3.65
2023-03-06T07:11:28.621Z,3.66
2023-03-06T07:12:28.600Z,3.68
2023-03-06T07:13:28.602Z,3.69
2023-03-06T07:14:28.600Z,3.68
2023-03-06T07:15:28.620Z,3.69
2023-03-06T07:16:28.571Z,3.75
2023-03-06T07:17:28.549Z,3.75
2023-03-06T07:18:28.546Z,3.78
2023-03-06T07:19:28.524Z,3.80
2023-03-06T07:20:35.528Z,3.83
2023-03-06T07:21:35.508Z,3.83
2023-03-06T07:22:31.922Z,3.87
2023-03-06T07:23:29.471Z,3.87
2023-03-06T07:24:28.468Z,3.90
2023-03-06T07:25:35.484Z,3.88
2023-03-06T07:26:28.455Z,3.88
2023-03-06T07:27:28.460Z,3.84
2023-03-06T07:28:28.422Z,3.73
2023-03-06T07:29:28.453Z,3.73
2023-03-06T07:30:28.427Z,3.79
2023-03-06T07:31:28.506Z,3.76
2023-03-06T07:32:28.432Z,3.83
2023-03-06T07:33:28.363Z,3.75
2023-03-06T07:34:28.387Z,3.79
2023-03-06T07:35:28.344Z,3.76
2023-03-06T07:36:28.324Z,3.83
2023-03-06T07:37:28.328Z,3.90
2023-03-06T07:38:28.312Z,3.96
2023-03-06T07:39:28.336Z,3.97
2023-03-06T07:40:28.342Z,4.05
2023-03-06T07:41:28.292Z,4.11
2023-03-06T07:42:28.290Z,4.18
2023-03-06T07:43:28.256Z,4.18
2023-03-06T07:44:28.257Z,4.11
2023-03-06T07:45:28.238Z,4.05
2023-03-06T07:46:28.390Z,4.00
2023-03-06T07:47:28.221Z,4.02
2023-03-06T07:48:28.198Z,4.00
2023-03-06T07:49:28.519Z,3.93
2023-03-06T07:50:28.182Z,3.90
2023-03-06T07:51:28.160Z,3.90
2023-03-06T07:52:28.159Z,3.86
2023-03-06T07:53:28.151Z,3.90
2023-03-06T07:54:29.870Z,3.90
2023-03-06T07:55:28.150Z,3.96
2023-03-06T07:56:28.113Z,3.96
2023-03-06T07:57:28.080Z,3.97
2023-03-06T07:58:28.081Z,4.00
2023-03-06T07:59:28.090Z,3.94
2023-03-06T08:00:28.051Z,3.94
2023-03-06T08:01:28.064Z,3.91
2023-03-06T08:02:28.049Z,3.88
2023-03-06T08:03:28.059Z,3.88
2023-03-06T08:04:29.114Z,3.94
2023-03-06T08:05:28.005Z,3.93
2023-03-06T08:06:28.001Z,3.91
2023-03-06T08:07:27.973Z,3.91
2023-03-06T08:08:27.965Z,3.93
2023-03-06T08:09:27.971Z,3.98
2023-03-06T08:10:27.942Z,4.02
2023-03-06T08:11:27.965Z,4.06
2023-03-06T08:12:27.930Z,4.11
2023-03-06T08:13:27.907Z,4.12
2023-03-06T08:14:27.923Z,4.16
2023-03-06T08:15:27.897Z,4.20
2023-03-06T08:16:27.915Z,4.14
2023-03-06T08:17:27.869Z,4.16
2023-03-06T08:18:27.847Z,4.11
2023-03-06T08:19:27.846Z,4.09
2023-03-06T08:20:27.837Z,4.09
2023-03-06T08:21:27.827Z,4.11
2023-03-06T08:22:27.801Z,4.15
2023-03-06T08:23:27.822Z,4.15
2023-03-06T08:24:27.777Z,4.15
2023-03-06T08:25:27.773Z,4.16
2023-03-06T08:26:27.789Z,4.12
2023-03-06T08:27:27.736Z,4.08
2023-03-06T08:28:27.726Z,4.09
2023-03-06T08:29:27.861Z,4.16
2023-03-06T08:30:27.714Z,4.16
2023-03-06T08:31:27.803Z,4.22
2023-03-06T08:32:27.718Z,4.29
2023-03-06T08:33:27.745Z,4.32
2023-03-06T08:34:27.687Z,4.36
2023-03-06T08:35:27.702Z,4.45
2023-03-06T08:36:27.718Z,4.51
2023-03-06T08:37:27.623Z,4.54
2023-03-06T08:38:27.608Z,4.52
2023-03-06T08:39:30.494Z,4.54
2023-03-06T08:40:27.629Z,4.54
2023-03-06T08:41:27.580Z,4.70
2023-03-06T08:42:27.598Z,4.60
2023-03-06T08:43:27.646Z,4.59
2023-03-06T08:44:27.590Z,4.58
2023-03-06T08:45:27.602Z,4.63
2023-03-06T08:46:27.530Z,4.72
2023-03-06T08:47:27.797Z,4.73
2023-03-06T08:48:27.496Z,4.73
2023-03-06T08:49:27.510Z,4.88
2023-03-06T08:50:27.497Z,5.03
2023-03-06T08:51:27.464Z,5.15
2023-03-06T08:52:27.460Z,5.21
2023-03-06T08:53:41.772Z,5.24
2023-03-06T08:54:28.445Z,5.30
2023-03-06T08:55:27.466Z,5.12
2023-03-06T08:56:27.424Z,5.00
2023-03-06T08:57:27.389Z,4.91
2023-03-06T08:58:34.426Z,4.97
2023-03-06T08:59:34.823Z,4.96
2023-03-06T09:00:27.397Z,4.92
2023-03-06T09:01:27.478Z,4.94
2023-03-06T09:02:27.441Z,4.86
2023-03-06T09:03:27.325Z,4.82
2023-03-06T09:04:27.613Z,4.78
2023-03-06T09:05:27.338Z,4.73
2023-03-06T09:06:27.304Z,4.73
2023-03-06T09:07:27.302Z,4.75
2023-03-06T09:08:27.274Z,4.69
2023-03-06T09:09:27.282Z,4.70
2023-03-06T09:10:27.309Z,4.69
2023-03-06T09:11:27.254Z,4.66
2023-03-06T09:12:28.113Z,4.66
2023-03-06T09:13:27.275Z,4.69
2023-03-06T09:14:27.310Z,4.67
2023-03-06T09:15:27.213Z,4.80
2023-03-06T09:16:27.255Z,4.91
2023-03-06T09:17:27.229Z,4.99
2023-03-06T09:18:27.165Z,4.96
2023-03-06T09:19:27.146Z,4.92
2023-03-06T09:20:27.159Z,4.84
2023-03-06T09:21:27.142Z,4.84
2023-03-06T09:22:27.137Z,4.99
2023-03-06T09:23:27.200Z,5.12
2023-03-06T09:24:27.483Z,5.02
2023-03-06T09:25:27.130Z,4.92
2023-03-06T09:26:39.590Z,4.86
2023-03-06T09:27:28.074Z,4.72
2023-03-06T09:28:27.059Z,4.69
2023-03-06T09:29:27.041Z,4.70
2023-03-06T09:30:27.059Z,4.69
2023-03-06T09:31:27.034Z,4.66
2023-03-06T09:32:27.064Z,4.72
2023-03-06T09:33:27.015Z,4.84
2023-03-06T09:34:27.279Z,4.92
2023-03-06T09:35:26.995Z,5.02
2023-03-06T09:36:26.985Z,5.09
2023-03-06T09:37:26.960Z,5.12
2023-03-06T09:38:26.955Z,5.13
2023-03-06T09:39:26.923Z,5.04
2023-03-06T09:40:26.963Z,5.00
2023-03-06T09:41:26.933Z,4.99
2023-03-06T09:42:26.921Z,4.96
2023-03-06T09:43:26.883Z,4.94
2023-03-06T09:44:27.203Z,4.97
2023-03-06T09:45:26.876Z,4.99
2023-03-06T09:46:26.916Z,4.96
2023-03-06T09:47:26.864Z,5.06
2023-03-06T09:48:26.831Z,5.18
2023-03-06T09:49:26.822Z,5.33
2023-03-06T09:50:26.818Z,5.46
2023-03-06T09:51:26.807Z,5.46
2023-03-06T09:52:26.787Z,5.28
2023-03-06T09:53:26.806Z,5.20
2023-03-06T09:54:29.570Z,5.20
2023-03-06T09:55:26.772Z,5.25
2023-03-06T09:56:26.745Z,5.17
2023-03-06T09:57:26.738Z,5.17
2023-03-06T09:58:26.747Z,5.06
2023-03-06T09:59:26.711Z,5.03
2023-03-06T10:00:26.706Z,5.06
2023-03-06T10:01:26.692Z,5.13
2023-03-06T10:02:26.842Z,5.15
2023-03-06T10:03:26.711Z,5.13
2023-03-06T10:04:26.958Z,5.13
2023-03-06T10:05:26.650Z,5.07
2023-03-06T10:06:26.650Z,5.12
2023-03-06T10:07:26.638Z,5.15
2023-03-06T10:08:26.604Z,5.25
2023-03-06T10:09:26.602Z,5.31
2023-03-06T10:10:26.591Z,5.30
2023-03-06T10:11:26.603Z,5.35
2023-03-06T10:12:26.572Z,5.40
2023-03-06T10:13:26.541Z,5.48
2023-03-06T10:14:26.602Z,5.48
2023-03-06T10:15:26.621Z,5.45
2023-03-06T10:16:26.538Z,5.48
2023-03-06T10:17:26.515Z,5.49
2023-03-06T10:18:26.495Z,5.53
2023-03-06T10:19:26.493Z,5.53
2023-03-06T10:20:26.489Z,5.39
2023-03-06T10:21:26.488Z,5.35
2023-03-06T10:22:26.441Z,5.33
2023-03-06T10:23:26.467Z,5.31
2023-03-06T10:24:26.462Z,5.30
2023-03-06T10:25:26.444Z,5.36
2023-03-06T10:26:26.548Z,5.43
2023-03-06T10:27:26.393Z,5.46
2023-03-06T10:28:26.385Z,5.46
2023-03-06T10:29:26.370Z,5.49
2023-03-06T10:30:26.599Z,5.48
2023-03-06T10:31:26.402Z,5.60
2023-03-06T10:32:27.949Z,5.68
2023-03-06T10:33:33.354Z,5.89
2023-03-06T10:34:33.333Z,5.81
2023-03-06T10:35:33.368Z,5.79
2023-03-06T10:36:34.581Z,5.94
2023-03-06T10:37:33.294Z,5.99
2023-03-06T10:38:26.617Z,5.96
2023-03-06T10:39:26.525Z,5.93
2023-03-06T10:40:26.591Z,5.89
2023-03-06T10:41:26.264Z,5.82
2023-03-06T10:42:29.040Z,5.74
2023-03-06T10:43:26.621Z,5.82
2023-03-06T10:44:26.554Z,5.94
2023-03-06T10:45:26.205Z,6.01
2023-03-06T10:46:26.347Z,6.11
2023-03-06T10:47:28.063Z,6.08
2023-03-06T10:48:28.133Z,6.00
2023-03-06T10:49:27.972Z,6.08
2023-03-06T10:50:26.139Z,6.25
2023-03-06T10:51:26.517Z,6.33
2023-03-06T10:52:26.106Z,6.17
2023-03-06T10:53:26.108Z,6.27
2023-03-06T10:54:26.392Z,6.43
2023-03-06T10:55:26.096Z,6.46
2023-03-06T10:56:28.902Z,6.33
2023-03-06T10:57:26.066Z,6.37
2023-03-06T10:58:26.039Z,6.31
2023-03-06T10:59:26.035Z,6.48
2023-03-06T11:00:26.036Z,6.38
2023-03-06T11:01:26.023Z,6.38
2023-03-06T11:02:26.019Z,6.40
2023-03-06T11:03:25.974Z,6.48
2023-03-06T11:04:26.035Z,6.59
2023-03-06T11:05:25.975Z,6.58
2023-03-06T11:06:25.945Z,6.41
2023-03-06T11:07:26.121Z,6.34
2023-03-06T11:08:25.928Z,6.40
2023-03-06T11:09:25.914Z,6.51
2023-03-06T11:10:25.901Z,6.44
2023-03-06T11:11:37.099Z,6.31
2023-03-06T11:12:26.905Z,6.21
2023-03-06T11:13:25.865Z,6.12
2023-03-06T11:14:27.666Z,6.04
2023-03-06T11:15:25.873Z,6.08
2023-03-06T11:16:26.154Z,6.09
2023-03-06T11:17:25.813Z,6.00
2023-03-06T11:18:25.806Z,5.99
2023-03-06T11:19:25.792Z,5.96
2023-03-06T11:20:25.808Z,5.97
2023-03-06T11:21:25.794Z,5.93
2023-03-06T11:22:25.795Z,6.01
2023-03-06T11:23:25.743Z,6.03
2023-03-06T11:24:25.749Z,6.09
2023-03-06T11:25:25.741Z,6.17
2023-03-06T11:26:25.739Z,6.11
2023-03-06T11:27:25.710Z,6.03
2023-03-06T11:28:25.692Z,6.01
2023-03-06T11:29:25.786Z,6.03
2023-03-06T11:30:25.672Z,6.25
2023-03-06T11:31:25.685Z,6.43
2023-03-06T11:32:25.778Z,6.58
2023-03-06T11:33:25.634Z,6.52
2023-03-06T11:34:25.613Z,6.61
2023-03-06T11:35:25.658Z,6.70
2023-03-06T11:36:25.583Z,6.80
2023-03-06T11:37:25.583Z,6.80
2023-03-06T11:38:25.560Z,6.62
2023-03-06T11:39:25.564Z,6.58
2023-03-06T11:40:25.573Z,6.76
2023-03-06T11:41:25.529Z,6.70
2023-03-06T11:42:25.553Z,6.84
2023-03-06T11:43:25.527Z,6.85
2023-03-06T11:44:25.515Z,6.56
2023-03-06T11:45:25.519Z,6.31
2023-03-06T11:46:25.534Z,6.19
2023-03-06T11:47:25.469Z,6.15
2023-03-06T11:48:25.455Z,6.38
2023-03-06T11:49:25.500Z,6.66
2023-03-06T11:50:25.813Z,6.88
2023-03-06T11:51:25.450Z,6.94
2023-03-06T11:52:25.417Z,6.79
2023-03-06T11:53:25.419Z,6.55
2023-03-06T11:54:25.376Z,6.67
2023-03-06T11:55:25.400Z,6.71
2023-03-06T11:56:25.373Z,6.80
2023-03-06T11:57:25.356Z,6.71
2023-03-06T11:58:25.326Z,6.48
2023-03-06T11:59:25.331Z,6.52
2023-03-06T12:00:25.317Z,6.66
2023-03-06T12:01:25.307Z,6.79
2023-03-06T12:02:25.340Z,6.89
2023-03-06T12:03:25.278Z,6.69
2023-03-06T12:04:25.286Z,6.59
2023-03-06T12:05:25.309Z,6.67
2023-03-06T12:06:25.244Z,6.61
2023-03-06T12:07:25.248Z,6.52
2023-03-06T12:08:25.228Z,6.46
2023-03-06T12:09:32.230Z,6.46
2023-03-06T12:10:25.206Z,6.55
2023-03-06T12:11:25.179Z,6.67
2023-03-06T12:12:32.195Z,6.76
2023-03-06T12:14:25.152Z,6.88
2023-03-06T12:15:25.157Z,6.85
2023-03-06T12:16:25.170Z,6.73
2023-03-06T12:17:25.123Z,6.61
2023-03-06T12:18:25.128Z,6.62
2023-03-06T12:19:25.093Z,6.67
2023-03-06T12:20:25.105Z,6.70
2023-03-06T12:21:25.084Z,6.64
2023-03-06T12:22:25.371Z,6.76
2023-03-06T12:23:25.043Z,6.71
2023-03-06T12:24:25.042Z,6.81
2023-03-06T12:25:25.041Z,6.71
2023-03-06T12:26:25.304Z,6.71
2023-03-06T12:27:25.016Z,6.73
2023-03-06T12:28:24.986Z,6.55
2023-03-06T12:29:24.983Z,6.46
2023-03-06T12:30:24.999Z,6.49
2023-03-06T12:31:25.028Z,6.48
2023-03-06T12:32:25.020Z,6.48
2023-03-06T12:33:24.967Z,6.36
2023-03-06T12:34:24.931Z,6.43
2023-03-06T12:35:24.953Z,6.54
2023-03-06T12:36:24.893Z,6.55
2023-03-06T12:37:24.895Z,6.51
2023-03-06T12:38:24.870Z,6.48
2023-03-06T12:39:24.865Z,6.38
2023-03-06T12:40:24.872Z,6.34
2023-03-06T12:41:24.857Z,6.37
2023-03-06T12:42:24.863Z,6.44
2023-03-06T12:43:24.818Z,6.40
2023-03-06T12:44:24.816Z,6.40
2023-03-06T12:45:24.833Z,6.36
2023-03-06T12:46:24.851Z,6.36
2023-03-06T12:47:24.796Z,6.37
2023-03-06T12:48:24.754Z,6.38
2023-03-06T12:49:32.085Z,6.44
2023-03-06T12:50:25.738Z,6.48
2023-03-06T12:51:24.724Z,6.54
2023-03-06T12:52:29.680Z,6.44
2023-03-06T12:53:25.706Z,6.44
2023-03-06T12:54:24.697Z,6.31
2023-03-06T12:55:25.990Z,6.22
2023-03-06T12:56:24.673Z,6.21
2023-03-06T12:57:24.959Z,6.33
2023-03-06T12:58:24.974Z,6.38
2023-03-06T12:59:24.633Z,6.44
2023-03-06T13:00:24.629Z,6.49
2023-03-06T13:01:24.657Z,6.43
2023-03-06T13:02:24.699Z,6.36
2023-03-06T13:03:24.581Z,6.38
2023-03-06T13:04:24.572Z,6.46
2023-03-06T13:05:24.605Z,6.54
2023-03-06T13:06:24.553Z,6.58
2023-03-06T13:07:25.322Z,6.59
2023-03-06T13:08:24.554Z,6.62
2023-03-06T13:09:24.520Z,6.56
2023-03-06T13:10:24.554Z,6.48
2023-03-06T13:11:24.491Z,6.41
2023-03-06T13:12:24.498Z,6.41
2023-03-06T13:13:24.498Z,6.44
2023-03-06T13:14:24.452Z,6.41
2023-03-06T13:15:24.462Z,6.41
2023-03-06T13:16:24.501Z,6.40
2023-03-06T13:17:24.432Z,6.41
2023-03-06T13:18:24.429Z,6.44
2023-03-06T13:19:24.404Z,6.43